Aeroporto :
LOGIN :

Iscrizione | Disclaimer

   EN    FR    IT 

 










Sommario :    VFR   VFR Marginale   IFR   IFR Intensivo   IFR Molto Intensivo
Visibilità : 
Base nubi : 
>= 8 km
>= 3000ft
5 / 8 km
1000 / 3000 ft
1500m / 5 km
500 / 1000 ft
800 / 1500m
200 / 500 ft
< 800m
< 200 ft
Simboli :   Temporali  Nebbia  Neve Forte  Precipitazioni Forti  Vento > 20 kt
SIGMETs :   Varie  Temporali  Ghiacco  Turbolenza  Onda orograficha  Ceneri Vulcaniche






- Altitudine del aeroporto : 65 ft
- Codice IATA : PMO


LICJ - Palermo Punta Raisi

ULTIMO METAR :
  • 191220Z 04011KT CAVOK 23/17 Q1017

METARs OBSOLETI :
  • 191150Z 05012KT CAVOK 23/16 Q1017
  • 191120Z 04011KT CAVOK 23/16 Q1017
  • 191050Z 04008KT CAVOK 23/17 Q1018
  • 191020Z 03006KT CAVOK 22/17 Q1018
  • 190950Z 03006KT CAVOK 22/16 Q1018

TAF TAF LICJ
Valido dal 19 a 12 ore il 20 a 12 ore UTC


191100Z 1912/2012 04010KT 9999 FEW030
BECMG 1918/1920 18008KT
BECMG 2010/2012 03010KT



MetMap, La meteo Aeronautica in un colpo d'occhio ! - Copyright ORBIFLY Dicembre 2007 - Disclaimer

ORBIFLY MET'MAP TEAM :

Programmazione e sviluppo : Alexandra Zaïnal
Concezione e sviluppo : Baudouin d'Aumeries
Co-Programmazione e sviluppo : Marc-Olivier Méhu
Supporto tecnico e logistico : Manuel Goepfert
Aiuto per la traduzione : Arnaldo La Scala

Contatto : metmap@orbifly.com




FONTI E CREDITI :

   NOAA